sensor_id;sensor_type;location;lat;lon;timestamp;temperature;humidity
52203;DHT22;38173;52.850;6.970;2023-04-07T00:00:55;6.70;99.90
52203;DHT22;38173;52.850;6.970;2023-04-07T00:03:21;6.70;99.90
52203;DHT22;38173;52.850;6.970;2023-04-07T00:05:47;6.70;99.90
52203;DHT22;38173;52.850;6.970;2023-04-07T00:08:13;6.70;99.90
52203;DHT22;38173;52.850;6.970;2023-04-07T00:10:41;6.70;99.90
52203;DHT22;38173;52.850;6.970;2023-04-07T00:13:06;6.70;99.90
52203;DHT22;38173;52.850;6.970;2023-04-07T00:15:32;6.70;99.90
52203;DHT22;38173;52.850;6.970;2023-04-07T00:17:58;6.70;99.90
52203;DHT22;38173;52.850;6.970;2023-04-07T00:20:23;6.70;99.90
52203;DHT22;38173;52.850;6.970;2023-04-07T00:22:49;6.70;99.90
52203;DHT22;38173;52.850;6.970;2023-04-07T00:25:14;6.80;99.90
52203;DHT22;38173;52.850;6.970;2023-04-07T00:27:40;6.70;99.90
52203;DHT22;38173;52.850;6.970;2023-04-07T00:30:06;6.70;99.90
52203;DHT22;38173;52.850;6.970;2023-04-07T00:32:32;6.70;99.90
52203;DHT22;38173;52.850;6.970;2023-04-07T00:34:57;6.70;99.90
52203;DHT22;38173;52.850;6.970;2023-04-07T00:37:23;6.70;99.90
52203;DHT22;38173;52.850;6.970;2023-04-07T00:39:50;6.70;99.90
52203;DHT22;38173;52.850;6.970;2023-04-07T00:42:16;6.70;99.90
52203;DHT22;38173;52.850;6.970;2023-04-07T00:44:42;6.70;99.90
52203;DHT22;38173;52.850;6.970;2023-04-07T00:47:08;6.70;99.90
52203;DHT22;38173;52.850;6.970;2023-04-07T00:49:33;6.70;99.90
52203;DHT22;38173;52.850;6.970;2023-04-07T00:51:59;6.70;99.90
52203;DHT22;38173;52.850;6.970;2023-04-07T00:54:26;6.70;99.90
52203;DHT22;38173;52.850;6.970;2023-04-07T00:56:52;6.70;99.90
52203;DHT22;38173;52.850;6.970;2023-04-07T00:59:17;6.70;99.90
52203;DHT22;38173;52.850;6.970;2023-04-07T01:04:17;6.70;99.90
52203;DHT22;38173;52.850;6.970;2023-04-07T01:06:47;6.70;99.90
52203;DHT22;38173;52.850;6.970;2023-04-07T01:14:28;6.70;99.90
52203;DHT22;38173;52.850;6.970;2023-04-07T01:16:56;6.70;99.90
52203;DHT22;38173;52.850;6.970;2023-04-07T01:19:35;6.70;99.90
52203;DHT22;38173;52.850;6.970;2023-04-07T01:22:02;6.70;99.90
52203;DHT22;38173;52.850;6.970;2023-04-07T01:27:04;6.70;99.90
52203;DHT22;38173;52.850;6.970;2023-04-07T01:29:33;6.70;99.90
52203;DHT22;38173;52.850;6.970;2023-04-07T01:32:01;6.70;99.90
52203;DHT22;38173;52.850;6.970;2023-04-07T01:34:35;6.70;99.90
52203;DHT22;38173;52.850;6.970;2023-04-07T01:37:01;6.60;99.90
52203;DHT22;38173;52.850;6.970;2023-04-07T01:39:27;6.70;99.90
52203;DHT22;38173;52.850;6.970;2023-04-07T01:41:53;6.70;99.90
52203;DHT22;38173;52.850;6.970;2023-04-07T01:44:19;6.70;99.90
52203;DHT22;38173;52.850;6.970;2023-04-07T01:46:45;6.60;99.90
52203;DHT22;38173;52.850;6.970;2023-04-07T01:49:11;6.60;99.90
52203;DHT22;38173;52.850;6.970;2023-04-07T01:51:37;6.60;99.90
52203;DHT22;38173;52.850;6.970;2023-04-07T01:54:04;6.60;99.90
52203;DHT22;38173;52.850;6.970;2023-04-07T01:56:30;6.70;99.90
52203;DHT22;38173;52.850;6.970;2023-04-07T01:58:55;6.60;99.90
52203;DHT22;38173;52.850;6.970;2023-04-07T02:01:21;6.60;99.90
52203;DHT22;38173;52.850;6.970;2023-04-07T02:04:08;6.60;99.90
52203;DHT22;38173;52.850;6.970;2023-04-07T02:06:41;6.60;99.90
52203;DHT22;38173;52.850;6.970;2023-04-07T02:09:07;6.60;99.90
52203;DHT22;38173;52.850;6.970;2023-04-07T02:11:35;6.60;99.90
52203;DHT22;38173;52.850;6.970;2023-04-07T02:14:01;6.60;99.90
52203;DHT22;38173;52.850;6.970;2023-04-07T02:16:31;6.60;99.90
52203;DHT22;38173;52.850;6.970;2023-04-07T02:18:57;6.60;99.90
52203;DHT22;38173;52.850;6.970;2023-04-07T02:21:23;6.60;99.90
52203;DHT22;38173;52.850;6.970;2023-04-07T02:23:50;6.60;99.90
52203;DHT22;38173;52.850;6.970;2023-04-07T02:26:15;6.60;99.90
52203;DHT22;38173;52.850;6.970;2023-04-07T02:28:41;6.60;99.90
52203;DHT22;38173;52.850;6.970;2023-04-07T02:31:07;6.60;99.90
52203;DHT22;38173;52.850;6.970;2023-04-07T02:33:38;6.60;99.90
52203;DHT22;38173;52.850;6.970;2023-04-07T02:36:03;6.60;99.90
52203;DHT22;38173;52.850;6.970;2023-04-07T02:38:29;6.60;99.90
52203;DHT22;38173;52.850;6.970;2023-04-07T02:40:56;6.60;99.90
52203;DHT22;38173;52.850;6.970;2023-04-07T02:43:23;6.60;99.90
52203;DHT22;38173;52.850;6.970;2023-04-07T02:45:50;6.60;99.90
52203;DHT22;38173;52.850;6.970;2023-04-07T02:48:15;6.60;99.90
52203;DHT22;38173;52.850;6.970;2023-04-07T02:50:41;6.60;99.90
52203;DHT22;38173;52.850;6.970;2023-04-07T02:53:07;6.60;99.90
52203;DHT22;38173;52.850;6.970;2023-04-07T02:55:32;6.60;99.90
52203;DHT22;38173;52.850;6.970;2023-04-07T02:57:58;6.60;99.90
52203;DHT22;38173;52.850;6.970;2023-04-07T03:00:24;6.60;99.90
52203;DHT22;38173;52.850;6.970;2023-04-07T03:02:49;6.60;99.90
52203;DHT22;38173;52.850;6.970;2023-04-07T03:05:15;6.60;99.90
52203;DHT22;38173;52.850;6.970;2023-04-07T03:07:41;6.70;99.90
52203;DHT22;38173;52.850;6.970;2023-04-07T03:10:06;6.60;99.90
52203;DHT22;38173;52.850;6.970;2023-04-07T03:12:32;6.60;99.90
52203;DHT22;38173;52.850;6.970;2023-04-07T03:14:57;6.60;99.90
52203;DHT22;38173;52.850;6.970;2023-04-07T03:17:23;6.60;99.90
52203;DHT22;38173;52.850;6.970;2023-04-07T03:19:49;6.60;99.90
52203;DHT22;38173;52.850;6.970;2023-04-07T03:22:16;6.60;99.90
52203;DHT22;38173;52.850;6.970;2023-04-07T03:24:41;6.60;99.90
52203;DHT22;38173;52.850;6.970;2023-04-07T03:27:07;6.60;99.90
52203;DHT22;38173;52.850;6.970;2023-04-07T03:29:33;6.60;99.90
52203;DHT22;38173;52.850;6.970;2023-04-07T03:31:58;6.60;99.90
52203;DHT22;38173;52.850;6.970;2023-04-07T03:34:24;6.60;99.90
52203;DHT22;38173;52.850;6.970;2023-04-07T03:36:50;6.60;99.90
52203;DHT22;38173;52.850;6.970;2023-04-07T03:39:16;6.60;99.90
52203;DHT22;38173;52.850;6.970;2023-04-07T03:41:42;6.50;99.90
52203;DHT22;38173;52.850;6.970;2023-04-07T03:44:07;6.60;99.90
52203;DHT22;38173;52.850;6.970;2023-04-07T03:46:33;6.60;99.90
52203;DHT22;38173;52.850;6.970;2023-04-07T03:48:58;6.60;99.90
52203;DHT22;38173;52.850;6.970;2023-04-07T03:51:25;6.50;99.90
52203;DHT22;38173;52.850;6.970;2023-04-07T03:53:52;6.60;99.90
52203;DHT22;38173;52.850;6.970;2023-04-07T03:56:17;6.50;99.90
52203;DHT22;38173;52.850;6.970;2023-04-07T03:58:43;6.60;99.90
52203;DHT22;38173;52.850;6.970;2023-04-07T04:01:10;6.50;99.90
52203;DHT22;38173;52.850;6.970;2023-04-07T04:03:36;6.50;99.90
52203;DHT22;38173;52.850;6.970;2023-04-07T04:06:02;6.50;99.90
52203;DHT22;38173;52.850;6.970;2023-04-07T04:08:29;6.50;99.90
52203;DHT22;38173;52.850;6.970;2023-04-07T04:10:55;6.50;99.90
52203;DHT22;38173;52.850;6.970;2023-04-07T04:13:20;6.50;99.90
52203;DHT22;38173;52.850;6.970;2023-04-07T04:15:46;6.50;99.90
52203;DHT22;38173;52.850;6.970;2023-04-07T04:18:12;6.50;99.90
52203;DHT22;38173;52.850;6.970;2023-04-07T04:20:37;6.50;99.90
52203;DHT22;38173;52.850;6.970;2023-04-07T04:23:03;6.40;99.90
52203;DHT22;38173;52.850;6.970;2023-04-07T04:25:29;6.50;99.90
52203;DHT22;38173;52.850;6.970;2023-04-07T04:27:54;6.50;99.90
52203;DHT22;38173;52.850;6.970;2023-04-07T04:30:20;6.50;99.90
52203;DHT22;38173;52.850;6.970;2023-04-07T04:32:46;6.40;99.90
52203;DHT22;38173;52.850;6.970;2023-04-07T04:35:12;6.40;99.90
52203;DHT22;38173;52.850;6.970;2023-04-07T04:37:37;6.50;99.90
52203;DHT22;38173;52.850;6.970;2023-04-07T04:40:03;6.50;99.90
52203;DHT22;38173;52.850;6.970;2023-04-07T04:42:33;6.50;99.90
52203;DHT22;38173;52.850;6.970;2023-04-07T04:44:58;6.40;99.90
52203;DHT22;38173;52.850;6.970;2023-04-07T04:47:24;6.40;99.90
52203;DHT22;38173;52.850;6.970;2023-04-07T04:49:49;6.40;99.90
52203;DHT22;38173;52.850;6.970;2023-04-07T04:52:15;6.40;99.90
52203;DHT22;38173;52.850;6.970;2023-04-07T04:54:42;6.40;99.90
52203;DHT22;38173;52.850;6.970;2023-04-07T04:57:07;6.50;99.90
52203;DHT22;38173;52.850;6.970;2023-04-07T04:59:33;6.40;99.90
52203;DHT22;38173;52.850;6.970;2023-04-07T05:02:01;6.50;99.90
52203;DHT22;38173;52.850;6.970;2023-04-07T05:04:27;6.40;99.90
52203;DHT22;38173;52.850;6.970;2023-04-07T05:06:53;6.40;99.90
52203;DHT22;38173;52.850;6.970;2023-04-07T05:09:18;6.40;99.90
52203;DHT22;38173;52.850;6.970;2023-04-07T05:11:44;6.40;99.90
52203;DHT22;38173;52.850;6.970;2023-04-07T05:14:09;6.40;99.90
52203;DHT22;38173;52.850;6.970;2023-04-07T05:16:35;6.40;99.90
52203;DHT22;38173;52.850;6.970;2023-04-07T05:19:01;6.40;99.90
52203;DHT22;38173;52.850;6.970;2023-04-07T05:21:26;6.40;99.90
52203;DHT22;38173;52.850;6.970;2023-04-07T05:23:52;6.40;99.90
52203;DHT22;38173;52.850;6.970;2023-04-07T05:26:18;6.40;99.90
52203;DHT22;38173;52.850;6.970;2023-04-07T05:28:44;6.40;99.90
52203;DHT22;38173;52.850;6.970;2023-04-07T05:31:09;6.40;99.90
52203;DHT22;38173;52.850;6.970;2023-04-07T05:33:35;6.40;99.90
52203;DHT22;38173;52.850;6.970;2023-04-07T05:36:01;6.40;99.90
52203;DHT22;38173;52.850;6.970;2023-04-07T05:38:27;6.40;99.90
52203;DHT22;38173;52.850;6.970;2023-04-07T05:40:52;6.40;99.90
52203;DHT22;38173;52.850;6.970;2023-04-07T05:43:18;6.40;99.90
52203;DHT22;38173;52.850;6.970;2023-04-07T05:45:44;6.40;99.90
52203;DHT22;38173;52.850;6.970;2023-04-07T05:48:09;6.40;99.90
52203;DHT22;38173;52.850;6.970;2023-04-07T05:50:35;6.40;99.90
52203;DHT22;38173;52.850;6.970;2023-04-07T05:53:01;6.40;99.90
52203;DHT22;38173;52.850;6.970;2023-04-07T05:55:27;6.40;99.90
52203;DHT22;38173;52.850;6.970;2023-04-07T05:57:53;6.40;99.90
52203;DHT22;38173;52.850;6.970;2023-04-07T06:00:19;6.40;99.90
52203;DHT22;38173;52.850;6.970;2023-04-07T06:02:45;6.50;99.90
52203;DHT22;38173;52.850;6.970;2023-04-07T06:05:11;6.40;99.90
52203;DHT22;38173;52.850;6.970;2023-04-07T06:07:36;6.50;99.90
52203;DHT22;38173;52.850;6.970;2023-04-07T06:10:02;6.50;99.90
52203;DHT22;38173;52.850;6.970;2023-04-07T06:12:28;6.50;99.90
52203;DHT22;38173;52.850;6.970;2023-04-07T06:14:56;6.50;99.90
52203;DHT22;38173;52.850;6.970;2023-04-07T06:17:23;6.60;99.90
52203;DHT22;38173;52.850;6.970;2023-04-07T06:19:50;6.60;99.90
52203;DHT22;38173;52.850;6.970;2023-04-07T06:22:15;6.60;99.90
52203;DHT22;38173;52.850;6.970;2023-04-07T06:24:41;6.70;99.90
52203;DHT22;38173;52.850;6.970;2023-04-07T06:27:07;6.70;99.90
52203;DHT22;38173;52.850;6.970;2023-04-07T06:29:33;6.70;99.90
52203;DHT22;38173;52.850;6.970;2023-04-07T06:31:58;6.70;99.90
52203;DHT22;38173;52.850;6.970;2023-04-07T06:34:24;6.70;99.90
52203;DHT22;38173;52.850;6.970;2023-04-07T06:36:50;6.80;99.90
52203;DHT22;38173;52.850;6.970;2023-04-07T06:39:16;6.80;99.90
52203;DHT22;38173;52.850;6.970;2023-04-07T06:41:42;6.90;99.90
52203;DHT22;38173;52.850;6.970;2023-04-07T06:44:08;6.90;99.90
52203;DHT22;38173;52.850;6.970;2023-04-07T06:46:34;6.90;99.90
52203;DHT22;38173;52.850;6.970;2023-04-07T06:49:00;7.00;99.90
52203;DHT22;38173;52.850;6.970;2023-04-07T06:51:26;7.00;99.90
52203;DHT22;38173;52.850;6.970;2023-04-07T06:53:52;7.10;99.90
52203;DHT22;38173;52.850;6.970;2023-04-07T06:56:17;7.10;99.90
52203;DHT22;38173;52.850;6.970;2023-04-07T06:58:43;7.20;99.90
52203;DHT22;38173;52.850;6.970;2023-04-07T07:01:11;7.20;99.90
52203;DHT22;38173;52.850;6.970;2023-04-07T07:03:37;7.30;99.90
52203;DHT22;38173;52.850;6.970;2023-04-07T07:06:02;7.40;99.90
52203;DHT22;38173;52.850;6.970;2023-04-07T07:08:28;7.40;99.90
52203;DHT22;38173;52.850;6.970;2023-04-07T07:10:55;7.40;99.90
52203;DHT22;38173;52.850;6.970;2023-04-07T07:13:21;7.50;99.90
52203;DHT22;38173;52.850;6.970;2023-04-07T07:15:53;7.60;99.90
52203;DHT22;38173;52.850;6.970;2023-04-07T07:18:19;7.70;99.90
52203;DHT22;38173;52.850;6.970;2023-04-07T07:20:45;7.70;99.90
52203;DHT22;38173;52.850;6.970;2023-04-07T07:23:10;7.70;99.90
52203;DHT22;38173;52.850;6.970;2023-04-07T07:25:36;7.80;99.90
52203;DHT22;38173;52.850;6.970;2023-04-07T07:28:02;7.80;99.90
52203;DHT22;38173;52.850;6.970;2023-04-07T07:30:27;7.80;99.90
52203;DHT22;38173;52.850;6.970;2023-04-07T07:32:53;7.80;99.90
52203;DHT22;38173;52.850;6.970;2023-04-07T07:35:19;7.90;99.90
52203;DHT22;38173;52.850;6.970;2023-04-07T07:37:45;7.90;99.90
52203;DHT22;38173;52.850;6.970;2023-04-07T07:40:12;8.00;99.90
52203;DHT22;38173;52.850;6.970;2023-04-07T07:42:38;8.00;99.90
52203;DHT22;38173;52.850;6.970;2023-04-07T07:45:04;8.00;99.90
52203;DHT22;38173;52.850;6.970;2023-04-07T07:47:29;8.10;99.90
52203;DHT22;38173;52.850;6.970;2023-04-07T07:49:55;8.20;99.90
52203;DHT22;38173;52.850;6.970;2023-04-07T07:52:21;8.20;99.90
52203;DHT22;38173;52.850;6.970;2023-04-07T07:54:47;8.20;99.90
52203;DHT22;38173;52.850;6.970;2023-04-07T07:57:13;8.20;99.90
52203;DHT22;38173;52.850;6.970;2023-04-07T07:59:41;8.20;99.90
52203;DHT22;38173;52.850;6.970;2023-04-07T08:02:07;8.30;99.90
52203;DHT22;38173;52.850;6.970;2023-04-07T08:04:33;8.30;99.90
52203;DHT22;38173;52.850;6.970;2023-04-07T08:07:02;8.30;99.90
52203;DHT22;38173;52.850;6.970;2023-04-07T08:09:27;8.40;99.90
52203;DHT22;38173;52.850;6.970;2023-04-07T08:11:54;8.40;99.90
52203;DHT22;38173;52.850;6.970;2023-04-07T08:14:20;8.50;99.90
52203;DHT22;38173;52.850;6.970;2023-04-07T08:16:45;8.50;99.90
52203;DHT22;38173;52.850;6.970;2023-04-07T08:19:11;8.50;99.90
52203;DHT22;38173;52.850;6.970;2023-04-07T08:21:37;8.50;99.90
52203;DHT22;38173;52.850;6.970;2023-04-07T08:24:04;8.50;99.90
52203;DHT22;38173;52.850;6.970;2023-04-07T08:26:29;8.60;99.90
52203;DHT22;38173;52.850;6.970;2023-04-07T08:28:55;8.70;99.90
52203;DHT22;38173;52.850;6.970;2023-04-07T08:31:21;8.70;99.90
52203;DHT22;38173;52.850;6.970;2023-04-07T08:33:46;8.70;99.90
52203;DHT22;38173;52.850;6.970;2023-04-07T08:36:12;8.80;99.90
52203;DHT22;38173;52.850;6.970;2023-04-07T08:38:38;8.80;99.90
52203;DHT22;38173;52.850;6.970;2023-04-07T08:41:06;8.90;99.90
52203;DHT22;38173;52.850;6.970;2023-04-07T08:43:34;9.00;99.90
52203;DHT22;38173;52.850;6.970;2023-04-07T08:46:00;9.00;99.90
52203;DHT22;38173;52.850;6.970;2023-04-07T08:48:27;9.00;99.90
52203;DHT22;38173;52.850;6.970;2023-04-07T08:50:58;9.00;99.90
52203;DHT22;38173;52.850;6.970;2023-04-07T08:53:28;9.10;99.90
52203;DHT22;38173;52.850;6.970;2023-04-07T08:55:56;9.20;99.90
52203;DHT22;38173;52.850;6.970;2023-04-07T08:58:22;9.30;99.90
52203;DHT22;38173;52.850;6.970;2023-04-07T09:00:48;9.40;99.90
52203;DHT22;38173;52.850;6.970;2023-04-07T09:03:15;9.50;99.90
52203;DHT22;38173;52.850;6.970;2023-04-07T09:05:42;9.60;99.90
52203;DHT22;38173;52.850;6.970;2023-04-07T09:08:08;9.60;99.90
52203;DHT22;38173;52.850;6.970;2023-04-07T09:10:35;9.70;99.90
52203;DHT22;38173;52.850;6.970;2023-04-07T09:13:01;9.60;99.90
52203;DHT22;38173;52.850;6.970;2023-04-07T09:15:30;9.60;99.90
52203;DHT22;38173;52.850;6.970;2023-04-07T09:17:58;9.60;99.90
52203;DHT22;38173;52.850;6.970;2023-04-07T09:20:24;9.70;99.90
52203;DHT22;38173;52.850;6.970;2023-04-07T09:22:50;9.90;99.90
52203;DHT22;38173;52.850;6.970;2023-04-07T09:25:24;10.20;99.90
52203;DHT22;38173;52.850;6.970;2023-04-07T09:28:01;10.40;99.90
52203;DHT22;38173;52.850;6.970;2023-04-07T09:30:27;10.50;99.90
52203;DHT22;38173;52.850;6.970;2023-04-07T09:32:53;10.60;99.90
52203;DHT22;38173;52.850;6.970;2023-04-07T09:35:19;10.70;99.90
52203;DHT22;38173;52.850;6.970;2023-04-07T09:38:04;10.70;99.90
52203;DHT22;38173;52.850;6.970;2023-04-07T09:40:29;10.70;99.90
52203;DHT22;38173;52.850;6.970;2023-04-07T09:42:55;10.80;99.90
52203;DHT22;38173;52.850;6.970;2023-04-07T09:45:23;10.70;99.90
52203;DHT22;38173;52.850;6.970;2023-04-07T09:47:49;10.70;99.90
52203;DHT22;38173;52.850;6.970;2023-04-07T09:50:21;10.60;99.90
52203;DHT22;38173;52.850;6.970;2023-04-07T09:52:54;10.60;99.90
52203;DHT22;38173;52.850;6.970;2023-04-07T09:55:20;10.60;99.90
52203;DHT22;38173;52.850;6.970;2023-04-07T09:57:50;10.50;99.90
52203;DHT22;38173;52.850;6.970;2023-04-07T10:00:16;10.40;99.90
52203;DHT22;38173;52.850;6.970;2023-04-07T10:02:42;10.30;99.90
52203;DHT22;38173;52.850;6.970;2023-04-07T10:05:08;10.20;99.90
52203;DHT22;38173;52.850;6.970;2023-04-07T10:07:34;10.20;99.90
52203;DHT22;38173;52.850;6.970;2023-04-07T10:10:00;10.40;99.90
52203;DHT22;38173;52.850;6.970;2023-04-07T10:12:25;10.40;99.90
52203;DHT22;38173;52.850;6.970;2023-04-07T10:14:51;10.50;99.90
52203;DHT22;38173;52.850;6.970;2023-04-07T10:17:17;10.60;99.90
52203;DHT22;38173;52.850;6.970;2023-04-07T10:19:45;10.50;99.90
52203;DHT22;38173;52.850;6.970;2023-04-07T10:22:11;10.40;99.90
52203;DHT22;38173;52.850;6.970;2023-04-07T10:24:45;10.30;99.90
52203;DHT22;38173;52.850;6.970;2023-04-07T10:27:20;10.20;99.90
52203;DHT22;38173;52.850;6.970;2023-04-07T10:29:47;10.10;99.90
52203;DHT22;38173;52.850;6.970;2023-04-07T10:32:14;10.00;99.90
52203;DHT22;38173;52.850;6.970;2023-04-07T10:37:15;10.00;99.90
52203;DHT22;38173;52.850;6.970;2023-04-07T10:39:44;10.00;99.90
52203;DHT22;38173;52.850;6.970;2023-04-07T10:44:56;10.10;99.90
52203;DHT22;38173;52.850;6.970;2023-04-07T10:47:24;10.20;99.90
52203;DHT22;38173;52.850;6.970;2023-04-07T10:52:34;10.40;99.90
52203;DHT22;38173;52.850;6.970;2023-04-07T11:00:28;10.60;99.90
52203;DHT22;38173;52.850;6.970;2023-04-07T11:02:57;10.70;99.90
52203;DHT22;38173;52.850;6.970;2023-04-07T11:05:34;10.80;99.90
52203;DHT22;38173;52.850;6.970;2023-04-07T11:08:03;10.90;99.90
52203;DHT22;38173;52.850;6.970;2023-04-07T11:10:31;11.10;99.90
52203;DHT22;38173;52.850;6.970;2023-04-07T11:13:06;11.30;99.90
52203;DHT22;38173;52.850;6.970;2023-04-07T11:15:33;11.50;99.90
52203;DHT22;38173;52.850;6.970;2023-04-07T11:18:09;11.70;99.90
52203;DHT22;38173;52.850;6.970;2023-04-07T11:20:45;11.80;99.90
52203;DHT22;38173;52.850;6.970;2023-04-07T11:23:12;11.80;99.90
52203;DHT22;38173;52.850;6.970;2023-04-07T11:25:41;11.70;99.90
52203;DHT22;38173;52.850;6.970;2023-04-07T11:28:10;11.60;99.90
52203;DHT22;38173;52.850;6.970;2023-04-07T11:30:37;11.50;99.90
52203;DHT22;38173;52.850;6.970;2023-04-07T11:33:03;11.40;99.90
52203;DHT22;38173;52.850;6.970;2023-04-07T11:35:28;11.40;99.90
52203;DHT22;38173;52.850;6.970;2023-04-07T11:37:58;11.40;99.90
52203;DHT22;38173;52.850;6.970;2023-04-07T11:40:34;11.30;99.90
52203;DHT22;38173;52.850;6.970;2023-04-07T11:43:01;11.30;99.90
52203;DHT22;38173;52.850;6.970;2023-04-07T11:45:27;11.40;99.90
52203;DHT22;38173;52.850;6.970;2023-04-07T11:47:53;11.40;99.90
52203;DHT22;38173;52.850;6.970;2023-04-07T11:50:38;11.30;99.90
52203;DHT22;38173;52.850;6.970;2023-04-07T11:53:03;11.20;99.90
52203;DHT22;38173;52.850;6.970;2023-04-07T11:55:29;11.10;99.90
52203;DHT22;38173;52.850;6.970;2023-04-07T11:57:55;11.00;99.90
52203;DHT22;38173;52.850;6.970;2023-04-07T12:00:29;11.00;99.90
52203;DHT22;38173;52.850;6.970;2023-04-07T12:02:55;11.00;99.90
52203;DHT22;38173;52.850;6.970;2023-04-07T12:05:21;11.00;99.90
52203;DHT22;38173;52.850;6.970;2023-04-07T12:07:51;11.00;99.90
52203;DHT22;38173;52.850;6.970;2023-04-07T12:10:17;11.00;99.90
52203;DHT22;38173;52.850;6.970;2023-04-07T12:12:44;11.10;99.90
52203;DHT22;38173;52.850;6.970;2023-04-07T12:15:10;11.10;99.90
52203;DHT22;38173;52.850;6.970;2023-04-07T12:17:36;11.10;99.90
52203;DHT22;38173;52.850;6.970;2023-04-07T12:20:02;11.20;99.90
52203;DHT22;38173;52.850;6.970;2023-04-07T12:22:30;11.40;99.90
52203;DHT22;38173;52.850;6.970;2023-04-07T12:24:56;11.50;99.90
52203;DHT22;38173;52.850;6.970;2023-04-07T12:27:22;11.70;99.90
52203;DHT22;38173;52.850;6.970;2023-04-07T12:29:48;11.80;99.90
52203;DHT22;38173;52.850;6.970;2023-04-07T12:32:13;12.00;99.90
52203;DHT22;38173;52.850;6.970;2023-04-07T12:34:39;12.20;99.90
52203;DHT22;38173;52.850;6.970;2023-04-07T12:37:05;12.30;99.90
52203;DHT22;38173;52.850;6.970;2023-04-07T12:39:31;12.50;99.90
52203;DHT22;38173;52.850;6.970;2023-04-07T12:41:57;12.60;99.90
52203;DHT22;38173;52.850;6.970;2023-04-07T12:44:24;12.80;99.90
52203;DHT22;38173;52.850;6.970;2023-04-07T12:46:49;12.90;99.90
52203;DHT22;38173;52.850;6.970;2023-04-07T12:49:17;12.90;99.90
52203;DHT22;38173;52.850;6.970;2023-04-07T12:51:43;13.00;99.90
52203;DHT22;38173;52.850;6.970;2023-04-07T12:54:09;13.00;99.90
52203;DHT22;38173;52.850;6.970;2023-04-07T12:56:39;12.90;99.90
52203;DHT22;38173;52.850;6.970;2023-04-07T12:59:06;12.80;99.90
52203;DHT22;38173;52.850;6.970;2023-04-07T13:01:32;12.90;99.90
52203;DHT22;38173;52.850;6.970;2023-04-07T13:03:59;13.10;99.90
52203;DHT22;38173;52.850;6.970;2023-04-07T13:06:26;13.20;99.90
52203;DHT22;38173;52.850;6.970;2023-04-07T13:08:52;13.50;99.90
52203;DHT22;38173;52.850;6.970;2023-04-07T13:11:17;13.90;99.90
52203;DHT22;38173;52.850;6.970;2023-04-07T13:13:43;14.20;99.90
52203;DHT22;38173;52.850;6.970;2023-04-07T13:16:09;14.40;99.90
52203;DHT22;38173;52.850;6.970;2023-04-07T13:18:34;14.70;99.90
52203;DHT22;38173;52.850;6.970;2023-04-07T13:21:02;14.80;99.90
52203;DHT22;38173;52.850;6.970;2023-04-07T13:23:27;14.80;99.90
52203;DHT22;38173;52.850;6.970;2023-04-07T13:25:53;14.70;99.90
52203;DHT22;38173;52.850;6.970;2023-04-07T13:28:18;14.70;99.90
52203;DHT22;38173;52.850;6.970;2023-04-07T13:30:46;14.60;99.90
52203;DHT22;38173;52.850;6.970;2023-04-07T13:33:14;14.60;99.90
52203;DHT22;38173;52.850;6.970;2023-04-07T13:35:39;14.60;99.90
52203;DHT22;38173;52.850;6.970;2023-04-07T13:38:05;14.70;99.90
52203;DHT22;38173;52.850;6.970;2023-04-07T13:40:31;14.70;99.90
52203;DHT22;38173;52.850;6.970;2023-04-07T13:42:57;14.80;99.90
52203;DHT22;38173;52.850;6.970;2023-04-07T13:45:23;14.80;99.90
52203;DHT22;38173;52.850;6.970;2023-04-07T13:47:48;14.80;99.90
52203;DHT22;38173;52.850;6.970;2023-04-07T13:50:17;14.80;99.90
52203;DHT22;38173;52.850;6.970;2023-04-07T13:52:43;14.70;99.90
52203;DHT22;38173;52.850;6.970;2023-04-07T13:55:11;14.90;99.90
52203;DHT22;38173;52.850;6.970;2023-04-07T13:57:36;15.00;99.90
52203;DHT22;38173;52.850;6.970;2023-04-07T14:00:02;15.20;99.90
52203;DHT22;38173;52.850;6.970;2023-04-07T14:02:28;15.30;99.90
52203;DHT22;38173;52.850;6.970;2023-04-07T14:04:57;15.30;99.90
52203;DHT22;38173;52.850;6.970;2023-04-07T14:07:28;15.80;99.90
52203;DHT22;38173;52.850;6.970;2023-04-07T14:09:57;16.10;99.90
52203;DHT22;38173;52.850;6.970;2023-04-07T14:12:22;16.30;99.90
52203;DHT22;38173;52.850;6.970;2023-04-07T14:14:48;16.70;99.90
52203;DHT22;38173;52.850;6.970;2023-04-07T14:17:19;17.90;99.90
52203;DHT22;38173;52.850;6.970;2023-04-07T14:19:46;18.60;96.10
52203;DHT22;38173;52.850;6.970;2023-04-07T14:22:18;18.80;96.60
52203;DHT22;38173;52.850;6.970;2023-04-07T14:24:44;18.70;99.00
52203;DHT22;38173;52.850;6.970;2023-04-07T14:27:10;18.40;96.10
52203;DHT22;38173;52.850;6.970;2023-04-07T14:29:36;18.20;98.80
52203;DHT22;38173;52.850;6.970;2023-04-07T14:32:04;18.10;96.70
52203;DHT22;38173;52.850;6.970;2023-04-07T14:34:29;18.00;96.80
52203;DHT22;38173;52.850;6.970;2023-04-07T14:36:56;17.60;97.20
52203;DHT22;38173;52.850;6.970;2023-04-07T14:39:23;17.20;96.50
52203;DHT22;38173;52.850;6.970;2023-04-07T14:41:49;16.70;97.20
52203;DHT22;38173;52.850;6.970;2023-04-07T14:44:16;16.30;98.40
52203;DHT22;38173;52.850;6.970;2023-04-07T14:46:41;16.20;99.90
52203;DHT22;38173;52.850;6.970;2023-04-07T14:49:07;16.20;99.90
52203;DHT22;38173;52.850;6.970;2023-04-07T14:51:33;16.80;99.90
52203;DHT22;38173;52.850;6.970;2023-04-07T14:53:58;18.00;99.90
52203;DHT22;38173;52.850;6.970;2023-04-07T14:56:24;18.90;99.90
52203;DHT22;38173;52.850;6.970;2023-04-07T14:58:50;19.90;95.50
52203;DHT22;38173;52.850;6.970;2023-04-07T15:01:16;20.60;96.10
52203;DHT22;38173;52.850;6.970;2023-04-07T15:03:42;20.90;95.40
52203;DHT22;38173;52.850;6.970;2023-04-07T15:06:07;21.10;94.00
52203;DHT22;38173;52.850;6.970;2023-04-07T15:08:34;21.20;90.40
52203;DHT22;38173;52.850;6.970;2023-04-07T15:11:02;21.50;92.00
52203;DHT22;38173;52.850;6.970;2023-04-07T15:13:30;21.70;94.20
52203;DHT22;38173;52.850;6.970;2023-04-07T15:16:04;21.70;92.10
52203;DHT22;38173;52.850;6.970;2023-04-07T15:18:30;21.80;91.80
52203;DHT22;38173;52.850;6.970;2023-04-07T15:20:55;21.90;91.60
52203;DHT22;38173;52.850;6.970;2023-04-07T15:23:21;22.00;89.70
52203;DHT22;38173;52.850;6.970;2023-04-07T15:25:47;21.70;94.30
52203;DHT22;38173;52.850;6.970;2023-04-07T15:28:15;21.50;91.40
52203;DHT22;38173;52.850;6.970;2023-04-07T15:30:41;21.40;87.50
52203;DHT22;38173;52.850;6.970;2023-04-07T15:33:07;21.70;83.20
52203;DHT22;38173;52.850;6.970;2023-04-07T15:35:32;22.10;86.90
52203;DHT22;38173;52.850;6.970;2023-04-07T15:37:58;22.20;83.80
52203;DHT22;38173;52.850;6.970;2023-04-07T15:40:24;22.10;87.10
52203;DHT22;38173;52.850;6.970;2023-04-07T15:42:50;21.90;84.30
52203;DHT22;38173;52.850;6.970;2023-04-07T15:45:15;21.60;83.70
52203;DHT22;38173;52.850;6.970;2023-04-07T15:47:41;21.50;84.70
52203;DHT22;38173;52.850;6.970;2023-04-07T15:50:10;21.50;80.50
52203;DHT22;38173;52.850;6.970;2023-04-07T15:52:36;21.70;81.90
52203;DHT22;38173;52.850;6.970;2023-04-07T15:55:02;22.00;82.50
52203;DHT22;38173;52.850;6.970;2023-04-07T15:57:27;22.30;80.80
52203;DHT22;38173;52.850;6.970;2023-04-07T15:59:53;22.30;81.10